sensor_id;sensor_type;location;lat;lon;timestamp;noise_LAeq;noise_LA_min;noise_LA_max;noise_LA01;noise_LA95
69614;Laerm;57159;52.472;4.750;2022-08-21T00:00:07;39.88;30.95;56.40;;
69614;Laerm;57159;52.472;4.750;2022-08-21T00:00:20;34.17;30.47;49.53;;
69614;Laerm;57159;52.472;4.750;2022-08-21T00:00:31;38.98;30.76;52.85;;
69614;Laerm;57159;52.472;4.750;2022-08-21T00:00:41;41.63;30.92;56.43;;
69614;Laerm;57159;52.472;4.750;2022-08-21T00:00:52;35.56;31.10;49.48;;
69614;Laerm;57159;52.472;4.750;2022-08-21T00:01:03;34.26;31.41;38.51;;
69614;Laerm;57159;52.472;4.750;2022-08-21T00:01:20;36.59;31.17;47.95;;
69614;Laerm;57159;52.472;4.750;2022-08-21T00:01:30;36.17;31.17;47.15;;
69614;Laerm;57159;52.472;4.750;2022-08-21T00:01:41;42.66;31.77;58.05;;
69614;Laerm;57159;52.472;4.750;2022-08-21T00:01:51;40.22;32.23;56.01;;
69614;Laerm;57159;52.472;4.750;2022-08-21T00:02:02;44.09;32.49;59.31;;
69614;Laerm;57159;52.472;4.750;2022-08-21T00:02:16;43.32;35.94;56.72;;
69614;Laerm;57159;52.472;4.750;2022-08-21T00:02:27;43.77;36.62;49.57;;
69614;Laerm;57159;52.472;4.750;2022-08-21T00:02:43;49.99;44.20;55.60;;
69614;Laerm;57159;52.472;4.750;2022-08-21T00:03:00;50.30;38.42;57.71;;
69614;Laerm;57159;52.472;4.750;2022-08-21T00:03:11;42.44;33.89;55.04;;
69614;Laerm;57159;52.472;4.750;2022-08-21T00:03:22;49.70;32.80;63.73;;
69614;Laerm;57159;52.472;4.750;2022-08-21T00:03:32;40.96;31.93;56.78;;
69614;Laerm;57159;52.472;4.750;2022-08-21T00:03:42;44.66;31.42;61.48;;
69614;Laerm;57159;52.472;4.750;2022-08-21T00:03:53;32.94;30.28;42.20;;
69614;Laerm;57159;52.472;4.750;2022-08-21T00:04:07;32.87;30.06;45.26;;
69614;Laerm;57159;52.472;4.750;2022-08-21T00:04:18;51.75;31.72;68.55;;
69614;Laerm;57159;52.472;4.750;2022-08-21T00:04:29;40.23;30.81;54.99;;
69614;Laerm;57159;52.472;4.750;2022-08-21T00:04:39;43.51;30.88;56.21;;
69614;Laerm;57159;52.472;4.750;2022-08-21T00:04:49;35.48;30.32;51.52;;
69614;Laerm;57159;52.472;4.750;2022-08-21T00:05:00;33.85;30.25;43.29;;
69614;Laerm;57159;52.472;4.750;2022-08-21T00:05:11;32.06;29.74;42.76;;
69614;Laerm;57159;52.472;4.750;2022-08-21T00:05:22;34.13;30.91;44.15;;
69614;Laerm;57159;52.472;4.750;2022-08-21T00:05:33;40.52;31.31;55.39;;
69614;Laerm;57159;52.472;4.750;2022-08-21T00:05:46;41.11;31.27;53.48;;
69614;Laerm;57159;52.472;4.750;2022-08-21T00:05:57;50.73;33.37;64.40;;
69614;Laerm;57159;52.472;4.750;2022-08-21T00:06:07;44.30;30.54;58.11;;
69614;Laerm;57159;52.472;4.750;2022-08-21T00:06:18;44.40;30.22;63.26;;
69614;Laerm;57159;52.472;4.750;2022-08-21T00:06:29;55.00;30.96;74.70;;
69614;Laerm;57159;52.472;4.750;2022-08-21T00:06:39;38.22;31.08;54.12;;
69614;Laerm;57159;52.472;4.750;2022-08-21T00:06:50;33.64;31.29;42.30;;
69614;Laerm;57159;52.472;4.750;2022-08-21T00:07:01;38.90;31.73;51.83;;
69614;Laerm;57159;52.472;4.750;2022-08-21T00:07:11;43.54;32.15;58.13;;
69614;Laerm;57159;52.472;4.750;2022-08-21T00:07:22;38.53;31.88;54.71;;
69614;Laerm;57159;52.472;4.750;2022-08-21T00:07:32;34.43;32.01;42.47;;
69614;Laerm;57159;52.472;4.750;2022-08-21T00:07:42;34.19;31.76;42.68;;
69614;Laerm;57159;52.472;4.750;2022-08-21T00:07:53;33.41;31.03;37.29;;
69614;Laerm;57159;52.472;4.750;2022-08-21T00:08:04;37.10;31.14;48.72;;
69614;Laerm;57159;52.472;4.750;2022-08-21T00:08:14;33.49;31.10;41.92;;
69614;Laerm;57159;52.472;4.750;2022-08-21T00:08:24;33.68;30.74;49.11;;
69614;Laerm;57159;52.472;4.750;2022-08-21T00:08:35;33.87;31.32;45.28;;
69614;Laerm;57159;52.472;4.750;2022-08-21T00:08:45;33.27;31.59;37.55;;
69614;Laerm;57159;52.472;4.750;2022-08-21T00:08:55;34.86;30.90;43.41;;
69614;Laerm;57159;52.472;4.750;2022-08-21T00:09:06;33.61;31.54;41.94;;
69614;Laerm;57159;52.472;4.750;2022-08-21T00:09:17;34.27;30.93;38.24;;
69614;Laerm;57159;52.472;4.750;2022-08-21T00:09:28;32.12;30.77;33.73;;
69614;Laerm;57159;52.472;4.750;2022-08-21T00:09:38;32.58;30.43;39.19;;
69614;Laerm;57159;52.472;4.750;2022-08-21T00:09:48;33.22;29.84;44.26;;
69614;Laerm;57159;52.472;4.750;2022-08-21T00:09:58;33.30;30.59;46.97;;
69614;Laerm;57159;52.472;4.750;2022-08-21T00:10:09;33.70;30.96;40.59;;
69614;Laerm;57159;52.472;4.750;2022-08-21T00:10:19;35.13;31.43;43.32;;
69614;Laerm;57159;52.472;4.750;2022-08-21T00:10:29;33.74;30.53;42.02;;
69614;Laerm;57159;52.472;4.750;2022-08-21T00:10:40;33.01;31.32;37.69;;
69614;Laerm;57159;52.472;4.750;2022-08-21T00:10:51;37.95;32.66;56.58;;
69614;Laerm;57159;52.472;4.750;2022-08-21T00:11:01;37.13;30.87;52.69;;
69614;Laerm;57159;52.472;4.750;2022-08-21T00:11:12;41.46;30.61;59.89;;
69614;Laerm;57159;52.472;4.750;2022-08-21T00:11:23;39.62;29.94;54.09;;
69614;Laerm;57159;52.472;4.750;2022-08-21T00:11:34;39.03;31.04;53.99;;
69614;Laerm;57159;52.472;4.750;2022-08-21T00:11:45;35.58;31.74;48.38;;
69614;Laerm;57159;52.472;4.750;2022-08-21T00:11:56;32.14;30.65;37.76;;
69614;Laerm;57159;52.472;4.750;2022-08-21T00:12:06;31.42;30.08;33.27;;
69614;Laerm;57159;52.472;4.750;2022-08-21T00:12:17;36.02;30.51;50.72;;
69614;Laerm;57159;52.472;4.750;2022-08-21T00:12:27;33.85;31.20;38.51;;
69614;Laerm;57159;52.472;4.750;2022-08-21T00:12:38;36.97;32.59;41.23;;
69614;Laerm;57159;52.472;4.750;2022-08-21T00:12:48;42.44;36.46;52.11;;
69614;Laerm;57159;52.472;4.750;2022-08-21T00:13:03;41.65;35.22;47.72;;
69614;Laerm;57159;52.472;4.750;2022-08-21T00:13:15;49.73;40.39;60.95;;
69614;Laerm;57159;52.472;4.750;2022-08-21T00:13:25;51.46;44.89;59.26;;
69614;Laerm;57159;52.472;4.750;2022-08-21T00:13:36;52.37;43.48;58.47;;
69614;Laerm;57159;52.472;4.750;2022-08-21T00:13:47;48.36;37.34;57.22;;
69614;Laerm;57159;52.472;4.750;2022-08-21T00:13:57;39.17;35.03;43.48;;
69614;Laerm;57159;52.472;4.750;2022-08-21T00:14:08;37.26;33.34;44.54;;
69614;Laerm;57159;52.472;4.750;2022-08-21T00:14:18;33.81;31.80;36.55;;
69614;Laerm;57159;52.472;4.750;2022-08-21T00:14:29;47.08;32.05;60.64;;
69614;Laerm;57159;52.472;4.750;2022-08-21T00:14:39;45.32;31.42;58.28;;
69614;Laerm;57159;52.472;4.750;2022-08-21T00:14:49;35.00;30.09;46.40;;
69614;Laerm;57159;52.472;4.750;2022-08-21T00:15:00;35.71;29.99;48.15;;
69614;Laerm;57159;52.472;4.750;2022-08-21T00:15:10;33.03;30.03;42.81;;
69614;Laerm;57159;52.472;4.750;2022-08-21T00:15:23;40.20;32.24;52.07;;
69614;Laerm;57159;52.472;4.750;2022-08-21T00:15:35;45.23;33.91;60.39;;
69614;Laerm;57159;52.472;4.750;2022-08-21T00:15:46;48.32;33.76;64.86;;
69614;Laerm;57159;52.472;4.750;2022-08-21T00:15:57;37.29;34.31;43.73;;
69614;Laerm;57159;52.472;4.750;2022-08-21T00:16:07;39.35;34.13;53.20;;
69614;Laerm;57159;52.472;4.750;2022-08-21T00:16:17;45.65;35.23;55.46;;
69614;Laerm;57159;52.472;4.750;2022-08-21T00:16:27;50.84;31.60;71.97;;
69614;Laerm;57159;52.472;4.750;2022-08-21T00:16:38;33.63;30.95;43.56;;
69614;Laerm;57159;52.472;4.750;2022-08-21T00:16:48;36.21;31.64;45.86;;
69614;Laerm;57159;52.472;4.750;2022-08-21T00:16:59;33.94;31.52;40.11;;
69614;Laerm;57159;52.472;4.750;2022-08-21T00:17:09;33.33;30.83;38.73;;
69614;Laerm;57159;52.472;4.750;2022-08-21T00:17:19;32.03;30.58;36.61;;
69614;Laerm;57159;52.472;4.750;2022-08-21T00:17:30;32.87;30.18;41.57;;
69614;Laerm;57159;52.472;4.750;2022-08-21T00:17:40;35.64;30.73;46.99;;
69614;Laerm;57159;52.472;4.750;2022-08-21T00:17:50;32.26;30.07;41.27;;
69614;Laerm;57159;52.472;4.750;2022-08-21T00:18:00;31.02;29.58;33.80;;
69614;Laerm;57159;52.472;4.750;2022-08-21T00:18:11;31.28;29.77;39.85;;
69614;Laerm;57159;52.472;4.750;2022-08-21T00:18:21;32.49;29.42;44.45;;
69614;Laerm;57159;52.472;4.750;2022-08-21T00:18:32;33.94;30.12;46.99;;
69614;Laerm;57159;52.472;4.750;2022-08-21T00:18:44;33.51;30.28;44.70;;
69614;Laerm;57159;52.472;4.750;2022-08-21T00:18:54;33.86;30.02;49.49;;
69614;Laerm;57159;52.472;4.750;2022-08-21T00:19:05;31.26;29.85;33.83;;
69614;Laerm;57159;52.472;4.750;2022-08-21T00:19:16;31.97;29.83;38.03;;
69614;Laerm;57159;52.472;4.750;2022-08-21T00:19:26;32.03;30.01;39.86;;
69614;Laerm;57159;52.472;4.750;2022-08-21T00:19:36;34.63;30.28;49.21;;
69614;Laerm;57159;52.472;4.750;2022-08-21T00:19:47;32.74;30.24;40.44;;
69614;Laerm;57159;52.472;4.750;2022-08-21T00:19:57;40.32;29.97;55.26;;
69614;Laerm;57159;52.472;4.750;2022-08-21T00:20:08;47.57;32.68;61.24;;
69614;Laerm;57159;52.472;4.750;2022-08-21T00:20:19;33.95;32.00;36.96;;
69614;Laerm;57159;52.472;4.750;2022-08-21T00:20:29;37.41;31.92;51.02;;
69614;Laerm;57159;52.472;4.750;2022-08-21T00:20:40;39.16;31.78;52.86;;
69614;Laerm;57159;52.472;4.750;2022-08-21T00:20:51;42.49;32.46;59.66;;
69614;Laerm;57159;52.472;4.750;2022-08-21T00:21:01;37.76;31.36;49.13;;
69614;Laerm;57159;52.472;4.750;2022-08-21T00:21:12;38.76;30.87;52.57;;
69614;Laerm;57159;52.472;4.750;2022-08-21T00:21:22;34.90;31.50;45.49;;
69614;Laerm;57159;52.472;4.750;2022-08-21T00:21:34;34.01;29.50;45.77;;
69614;Laerm;57159;52.472;4.750;2022-08-21T00:21:45;34.16;30.24;46.29;;
69614;Laerm;57159;52.472;4.750;2022-08-21T00:21:55;35.55;30.87;50.31;;
69614;Laerm;57159;52.472;4.750;2022-08-21T00:22:05;33.43;29.96;47.65;;
69614;Laerm;57159;52.472;4.750;2022-08-21T00:22:16;33.60;29.82;47.85;;
69614;Laerm;57159;52.472;4.750;2022-08-21T00:22:27;50.70;30.21;64.89;;
69614;Laerm;57159;52.472;4.750;2022-08-21T00:22:37;43.40;30.13;56.95;;
69614;Laerm;57159;52.472;4.750;2022-08-21T00:22:47;32.23;29.38;39.63;;
69614;Laerm;57159;52.472;4.750;2022-08-21T00:22:58;35.49;29.50;53.26;;
69614;Laerm;57159;52.472;4.750;2022-08-21T00:23:08;34.65;30.01;46.22;;
69614;Laerm;57159;52.472;4.750;2022-08-21T00:23:19;31.64;30.29;34.20;;
69614;Laerm;57159;52.472;4.750;2022-08-21T00:23:29;32.95;30.37;41.76;;
69614;Laerm;57159;52.472;4.750;2022-08-21T00:23:40;39.45;30.03;56.32;;
69614;Laerm;57159;52.472;4.750;2022-08-21T00:23:51;40.91;30.94;56.18;;
69614;Laerm;57159;52.472;4.750;2022-08-21T00:24:01;37.77;30.21;48.98;;
69614;Laerm;57159;52.472;4.750;2022-08-21T00:24:12;39.00;29.45;58.57;;
69614;Laerm;57159;52.472;4.750;2022-08-21T00:24:22;41.43;30.15;58.80;;
69614;Laerm;57159;52.472;4.750;2022-08-21T00:24:33;44.60;31.61;56.71;;
69614;Laerm;57159;52.472;4.750;2022-08-21T00:24:44;34.64;30.72;46.04;;
69614;Laerm;57159;52.472;4.750;2022-08-21T00:24:54;31.73;30.07;33.68;;
69614;Laerm;57159;52.472;4.750;2022-08-21T00:25:06;35.71;30.44;48.95;;
69614;Laerm;57159;52.472;4.750;2022-08-21T00:25:18;39.83;29.72;57.93;;
69614;Laerm;57159;52.472;4.750;2022-08-21T00:25:28;33.30;30.13;44.31;;
69614;Laerm;57159;52.472;4.750;2022-08-21T00:25:39;35.77;31.27;48.74;;
69614;Laerm;57159;52.472;4.750;2022-08-21T00:25:49;42.11;31.12;55.36;;
69614;Laerm;57159;52.472;4.750;2022-08-21T00:25:59;38.31;31.10;54.92;;
69614;Laerm;57159;52.472;4.750;2022-08-21T00:26:10;32.58;30.41;36.03;;
69614;Laerm;57159;52.472;4.750;2022-08-21T00:26:20;41.03;29.94;56.40;;
69614;Laerm;57159;52.472;4.750;2022-08-21T00:26:30;44.20;31.32;56.76;;
69614;Laerm;57159;52.472;4.750;2022-08-21T00:26:40;37.11;30.49;49.42;;
69614;Laerm;57159;52.472;4.750;2022-08-21T00:26:53;40.62;30.56;58.61;;
69614;Laerm;57159;52.472;4.750;2022-08-21T00:27:03;33.70;30.08;41.54;;
69614;Laerm;57159;52.472;4.750;2022-08-21T00:27:13;33.54;29.97;50.54;;
69614;Laerm;57159;52.472;4.750;2022-08-21T00:27:23;35.62;29.84;47.46;;
69614;Laerm;57159;52.472;4.750;2022-08-21T00:27:34;34.98;30.06;45.84;;
69614;Laerm;57159;52.472;4.750;2022-08-21T00:27:44;31.60;29.82;38.39;;
69614;Laerm;57159;52.472;4.750;2022-08-21T00:27:56;38.24;29.99;56.02;;
69614;Laerm;57159;52.472;4.750;2022-08-21T00:28:07;45.16;30.33;58.68;;
69614;Laerm;57159;52.472;4.750;2022-08-21T00:28:17;34.07;30.22;48.86;;
69614;Laerm;57159;52.472;4.750;2022-08-21T00:28:28;34.01;30.07;49.44;;
69614;Laerm;57159;52.472;4.750;2022-08-21T00:28:38;31.70;30.16;35.94;;
69614;Laerm;57159;52.472;4.750;2022-08-21T00:28:48;31.08;29.77;32.98;;
69614;Laerm;57159;52.472;4.750;2022-08-21T00:28:59;31.27;29.58;39.97;;
69614;Laerm;57159;52.472;4.750;2022-08-21T00:29:09;32.75;30.00;40.71;;
69614;Laerm;57159;52.472;4.750;2022-08-21T00:29:19;34.25;30.46;45.32;;
69614;Laerm;57159;52.472;4.750;2022-08-21T00:29:29;36.56;31.61;44.12;;
69614;Laerm;57159;52.472;4.750;2022-08-21T00:29:40;42.30;35.43;53.78;;
69614;Laerm;57159;52.472;4.750;2022-08-21T00:29:50;42.57;37.34;51.24;;
69614;Laerm;57159;52.472;4.750;2022-08-21T00:30:00;46.33;39.54;51.45;;
69614;Laerm;57159;52.472;4.750;2022-08-21T00:30:11;52.64;44.59;59.08;;
69614;Laerm;57159;52.472;4.750;2022-08-21T00:30:23;54.07;49.63;58.62;;
69614;Laerm;57159;52.472;4.750;2022-08-21T00:30:34;50.14;40.64;57.26;;
69614;Laerm;57159;52.472;4.750;2022-08-21T00:30:44;43.38;37.07;49.27;;
69614;Laerm;57159;52.472;4.750;2022-08-21T00:30:54;38.39;33.36;45.27;;
69614;Laerm;57159;52.472;4.750;2022-08-21T00:31:05;35.26;31.58;46.87;;
69614;Laerm;57159;52.472;4.750;2022-08-21T00:31:16;33.04;30.25;43.95;;
69614;Laerm;57159;52.472;4.750;2022-08-21T00:31:26;31.86;30.43;35.12;;
69614;Laerm;57159;52.472;4.750;2022-08-21T00:31:36;36.14;30.51;49.11;;
69614;Laerm;57159;52.472;4.750;2022-08-21T00:31:47;33.17;30.79;40.91;;
69614;Laerm;57159;52.472;4.750;2022-08-21T00:31:57;36.82;31.24;47.37;;
69614;Laerm;57159;52.472;4.750;2022-08-21T00:32:08;44.08;35.32;57.77;;
69614;Laerm;57159;52.472;4.750;2022-08-21T00:32:19;42.79;36.10;51.95;;
69614;Laerm;57159;52.472;4.750;2022-08-21T00:32:30;45.79;37.30;53.30;;
69614;Laerm;57159;52.472;4.750;2022-08-21T00:32:41;49.42;43.42;54.24;;
69614;Laerm;57159;52.472;4.750;2022-08-21T00:32:53;55.31;46.88;64.17;;
69614;Laerm;57159;52.472;4.750;2022-08-21T00:33:03;53.39;43.30;61.13;;
69614;Laerm;57159;52.472;4.750;2022-08-21T00:33:14;46.86;36.03;57.35;;
69614;Laerm;57159;52.472;4.750;2022-08-21T00:33:24;41.50;34.51;54.63;;
69614;Laerm;57159;52.472;4.750;2022-08-21T00:33:35;40.68;31.45;56.27;;
69614;Laerm;57159;52.472;4.750;2022-08-21T00:33:45;36.49;31.24;45.03;;
69614;Laerm;57159;52.472;4.750;2022-08-21T00:33:55;41.90;30.76;61.44;;
69614;Laerm;57159;52.472;4.750;2022-08-21T00:34:06;42.05;32.45;56.97;;
69614;Laerm;57159;52.472;4.750;2022-08-21T00:34:17;37.17;32.03;50.67;;
69614;Laerm;57159;52.472;4.750;2022-08-21T00:34:27;34.47;30.97;39.10;;
69614;Laerm;57159;52.472;4.750;2022-08-21T00:34:37;37.53;31.32;53.72;;
69614;Laerm;57159;52.472;4.750;2022-08-21T00:34:48;37.15;31.08;52.80;;
69614;Laerm;57159;52.472;4.750;2022-08-21T00:34:58;33.43;30.69;37.09;;
69614;Laerm;57159;52.472;4.750;2022-08-21T00:35:10;33.22;31.08;35.89;;
69614;Laerm;57159;52.472;4.750;2022-08-21T00:35:26;32.59;30.87;35.08;;
69614;Laerm;57159;52.472;4.750;2022-08-21T00:35:37;33.87;30.89;45.31;;
69614;Laerm;57159;52.472;4.750;2022-08-21T00:35:48;46.84;30.84;59.20;;
69614;Laerm;57159;52.472;4.750;2022-08-21T00:35:58;45.02;31.28;55.78;;
69614;Laerm;57159;52.472;4.750;2022-08-21T00:36:09;46.20;31.39;61.64;;
69614;Laerm;57159;52.472;4.750;2022-08-21T00:36:20;35.40;30.94;43.00;;
69614;Laerm;57159;52.472;4.750;2022-08-21T00:36:30;44.70;31.08;59.48;;
69614;Laerm;57159;52.472;4.750;2022-08-21T00:36:41;45.86;30.83;58.81;;
69614;Laerm;57159;52.472;4.750;2022-08-21T00:36:51;35.97;30.87;47.64;;
69614;Laerm;57159;52.472;4.750;2022-08-21T00:37:01;33.41;30.64;43.55;;
69614;Laerm;57159;52.472;4.750;2022-08-21T00:37:12;32.89;30.38;39.66;;
69614;Laerm;57159;52.472;4.750;2022-08-21T00:37:22;41.97;31.56;56.12;;
69614;Laerm;57159;52.472;4.750;2022-08-21T00:37:32;32.83;30.52;39.24;;
69614;Laerm;57159;52.472;4.750;2022-08-21T00:37:43;36.51;32.17;47.65;;
69614;Laerm;57159;52.472;4.750;2022-08-21T00:37:53;33.61;31.18;36.98;;
69614;Laerm;57159;52.472;4.750;2022-08-21T00:38:04;39.83;31.37;51.77;;
69614;Laerm;57159;52.472;4.750;2022-08-21T00:38:14;48.18;37.16;62.74;;
69614;Laerm;57159;52.472;4.750;2022-08-21T00:38:25;46.17;39.87;50.73;;
69614;Laerm;57159;52.472;4.750;2022-08-21T00:38:35;51.13;42.52;56.62;;
69614;Laerm;57159;52.472;4.750;2022-08-21T00:38:45;55.82;49.23;62.98;;
69614;Laerm;57159;52.472;4.750;2022-08-21T00:38:56;54.15;46.25;60.66;;
69614;Laerm;57159;52.472;4.750;2022-08-21T00:39:07;51.70;39.20;57.26;;
69614;Laerm;57159;52.472;4.750;2022-08-21T00:39:20;43.91;32.70;50.86;;
69614;Laerm;57159;52.472;4.750;2022-08-21T00:39:31;36.22;32.86;41.39;;
69614;Laerm;57159;52.472;4.750;2022-08-21T00:39:41;33.76;31.43;36.73;;
69614;Laerm;57159;52.472;4.750;2022-08-21T00:39:51;33.36;30.98;40.11;;
69614;Laerm;57159;52.472;4.750;2022-08-21T00:40:03;33.16;30.15;45.08;;
69614;Laerm;57159;52.472;4.750;2022-08-21T00:40:16;48.08;30.60;63.51;;
69614;Laerm;57159;52.472;4.750;2022-08-21T00:40:32;44.95;30.58;66.73;;
69614;Laerm;57159;52.472;4.750;2022-08-21T00:40:48;32.38;30.07;43.37;;
69614;Laerm;57159;52.472;4.750;2022-08-21T00:40:59;31.82;30.11;33.46;;
69614;Laerm;57159;52.472;4.750;2022-08-21T00:41:10;33.32;31.28;43.98;;
69614;Laerm;57159;52.472;4.750;2022-08-21T00:41:21;33.25;30.82;42.81;;
69614;Laerm;57159;52.472;4.750;2022-08-21T00:41:33;32.75;30.14;41.00;;
69614;Laerm;57159;52.472;4.750;2022-08-21T00:41:43;33.57;30.48;37.75;;
69614;Laerm;57159;52.472;4.750;2022-08-21T00:41:54;39.79;30.60;55.28;;
69614;Laerm;57159;52.472;4.750;2022-08-21T00:42:04;42.15;30.14;60.14;;
69614;Laerm;57159;52.472;4.750;2022-08-21T00:42:15;39.20;30.58;56.26;;
69614;Laerm;57159;52.472;4.750;2022-08-21T00:42:26;32.69;30.17;43.61;;
69614;Laerm;57159;52.472;4.750;2022-08-21T00:42:38;34.96;30.18;50.74;;
69614;Laerm;57159;52.472;4.750;2022-08-21T00:42:48;37.06;30.47;55.89;;
69614;Laerm;57159;52.472;4.750;2022-08-21T00:43:01;38.00;30.73;48.53;;
69614;Laerm;57159;52.472;4.750;2022-08-21T00:43:13;42.03;30.12;57.54;;
69614;Laerm;57159;52.472;4.750;2022-08-21T00:43:29;44.87;32.61;59.69;;
69614;Laerm;57159;52.472;4.750;2022-08-21T00:43:40;33.89;31.07;44.30;;
69614;Laerm;57159;52.472;4.750;2022-08-21T00:43:50;33.22;30.54;42.99;;
69614;Laerm;57159;52.472;4.750;2022-08-21T00:44:02;32.60;29.76;40.38;;
69614;Laerm;57159;52.472;4.750;2022-08-21T00:44:13;31.57;30.04;37.67;;
69614;Laerm;57159;52.472;4.750;2022-08-21T00:44:23;32.40;30.12;41.83;;
69614;Laerm;57159;52.472;4.750;2022-08-21T00:44:33;36.91;30.22;53.90;;
69614;Laerm;57159;52.472;4.750;2022-08-21T00:44:44;44.96;30.27;60.90;;
69614;Laerm;57159;52.472;4.750;2022-08-21T00:44:56;34.48;30.00;49.13;;
69614;Laerm;57159;52.472;4.750;2022-08-21T00:45:08;31.23;29.89;38.25;;
69614;Laerm;57159;52.472;4.750;2022-08-21T00:45:18;34.05;29.60;49.23;;
69614;Laerm;57159;52.472;4.750;2022-08-21T00:45:29;49.80;30.04;66.25;;
69614;Laerm;57159;52.472;4.750;2022-08-21T00:45:40;41.46;30.30;57.56;;
69614;Laerm;57159;52.472;4.750;2022-08-21T00:45:50;41.32;30.34;56.12;;
69614;Laerm;57159;52.472;4.750;2022-08-21T00:46:01;42.71;29.97;65.64;;
69614;Laerm;57159;52.472;4.750;2022-08-21T00:46:12;32.71;30.41;41.98;;
69614;Laerm;57159;52.472;4.750;2022-08-21T00:46:22;39.24;29.84;57.40;;
69614;Laerm;57159;52.472;4.750;2022-08-21T00:46:33;40.48;29.98;58.44;;
69614;Laerm;57159;52.472;4.750;2022-08-21T00:46:44;31.14;29.38;33.31;;
69614;Laerm;57159;52.472;4.750;2022-08-21T00:46:54;32.32;29.83;38.32;;
69614;Laerm;57159;52.472;4.750;2022-08-21T00:47:04;36.09;30.27;49.24;;
69614;Laerm;57159;52.472;4.750;2022-08-21T00:47:15;37.23;30.48;54.39;;
69614;Laerm;57159;52.472;4.750;2022-08-21T00:47:25;32.26;29.87;42.33;;
69614;Laerm;57159;52.472;4.750;2022-08-21T00:47:35;32.08;30.14;35.27;;
69614;Laerm;57159;52.472;4.750;2022-08-21T00:47:46;31.44;30.25;33.76;;
69614;Laerm;57159;52.472;4.750;2022-08-21T00:47:56;31.58;29.78;41.66;;
69614;Laerm;57159;52.472;4.750;2022-08-21T00:48:06;31.68;29.47;40.86;;
69614;Laerm;57159;52.472;4.750;2022-08-21T00:48:16;31.51;29.81;35.64;;
69614;Laerm;57159;52.472;4.750;2022-08-21T00:48:27;31.72;29.93;39.77;;
69614;Laerm;57159;52.472;4.750;2022-08-21T00:48:37;33.42;30.04;47.13;;
69614;Laerm;57159;52.472;4.750;2022-08-21T00:48:48;38.00;30.12;50.38;;
69614;Laerm;57159;52.472;4.750;2022-08-21T00:48:58;31.27;29.28;34.20;;
69614;Laerm;57159;52.472;4.750;2022-08-21T00:49:09;33.58;30.12;46.17;;
69614;Laerm;57159;52.472;4.750;2022-08-21T00:49:20;42.90;30.52;60.53;;
69614;Laerm;57159;52.472;4.750;2022-08-21T00:49:30;34.03;30.10;43.62;;
69614;Laerm;57159;52.472;4.750;2022-08-21T00:49:40;33.97;30.19;50.80;;
69614;Laerm;57159;52.472;4.750;2022-08-21T00:49:50;40.69;31.01;58.02;;
69614;Laerm;57159;52.472;4.750;2022-08-21T00:50:02;36.81;30.45;50.90;;
69614;Laerm;57159;52.472;4.750;2022-08-21T00:50:13;32.02;30.36;37.20;;
69614;Laerm;57159;52.472;4.750;2022-08-21T00:50:25;31.86;30.26;33.21;;
69614;Laerm;57159;52.472;4.750;2022-08-21T00:50:38;32.22;30.11;37.56;;
69614;Laerm;57159;52.472;4.750;2022-08-21T00:50:51;36.92;31.86;43.54;;
69614;Laerm;57159;52.472;4.750;2022-08-21T00:51:14;42.33;35.98;50.47;;
69614;Laerm;57159;52.472;4.750;2022-08-21T00:51:27;51.42;38.76;57.54;;
69614;Laerm;57159;52.472;4.750;2022-08-21T00:51:43;54.88;49.19;62.67;;
69614;Laerm;57159;52.472;4.750;2022-08-21T00:51:57;52.41;40.24;61.11;;
69614;Laerm;57159;52.472;4.750;2022-08-21T00:52:11;41.78;34.61;51.16;;
69614;Laerm;57159;52.472;4.750;2022-08-21T00:52:24;35.99;31.70;42.05;;
69614;Laerm;57159;52.472;4.750;2022-08-21T00:52:36;49.26;30.84;67.46;;
69614;Laerm;57159;52.472;4.750;2022-08-21T00:52:47;36.24;30.56;49.88;;
69614;Laerm;57159;52.472;4.750;2022-08-21T00:52:57;48.94;31.10;67.12;;
69614;Laerm;57159;52.472;4.750;2022-08-21T00:53:08;41.47;30.65;53.38;;
69614;Laerm;57159;52.472;4.750;2022-08-21T00:53:20;33.24;29.95;47.63;;
69614;Laerm;57159;52.472;4.750;2022-08-21T00:53:31;32.56;30.91;35.87;;
69614;Laerm;57159;52.472;4.750;2022-08-21T00:53:43;40.72;30.69;59.28;;
69614;Laerm;57159;52.472;4.750;2022-08-21T00:53:55;43.00;30.40;58.65;;
69614;Laerm;57159;52.472;4.750;2022-08-21T00:54:08;32.02;30.28;37.64;;
69614;Laerm;57159;52.472;4.750;2022-08-21T00:54:24;36.42;29.62;53.08;;
69614;Laerm;57159;52.472;4.750;2022-08-21T00:54:34;45.43;30.42;57.97;;
69614;Laerm;57159;52.472;4.750;2022-08-21T00:54:47;42.19;30.02;59.53;;
69614;Laerm;57159;52.472;4.750;2022-08-21T00:54:58;32.14;30.06;41.95;;
69614;Laerm;57159;52.472;4.750;2022-08-21T00:55:09;33.75;30.65;46.97;;
69614;Laerm;57159;52.472;4.750;2022-08-21T00:55:21;31.82;30.19;34.03;;
69614;Laerm;57159;52.472;4.750;2022-08-21T00:55:32;34.22;29.83;46.79;;
69614;Laerm;57159;52.472;4.750;2022-08-21T00:55:43;32.86;29.49;43.29;;
69614;Laerm;57159;52.472;4.750;2022-08-21T00:55:54;31.29;29.70;32.95;;
69614;Laerm;57159;52.472;4.750;2022-08-21T00:56:06;31.53;30.03;34.52;;
69614;Laerm;57159;52.472;4.750;2022-08-21T00:56:17;33.33;30.65;41.17;;
69614;Laerm;57159;52.472;4.750;2022-08-21T00:56:28;33.42;30.01;46.31;;
69614;Laerm;57159;52.472;4.750;2022-08-21T00:56:38;31.54;29.69;33.99;;
69614;Laerm;57159;52.472;4.750;2022-08-21T00:56:52;32.56;30.11;43.83;;
69614;Laerm;57159;52.472;4.750;2022-08-21T00:57:05;33.79;30.14;43.14;;
69614;Laerm;57159;52.472;4.750;2022-08-21T00:57:18;32.69;30.11;39.75;;
69614;Laerm;57159;52.472;4.750;2022-08-21T00:57:30;31.63;29.96;34.74;;
69614;Laerm;57159;52.472;4.750;2022-08-21T00:57:43;36.19;29.80;50.96;;
69614;Laerm;57159;52.472;4.750;2022-08-21T00:57:56;41.53;30.23;59.39;;
69614;Laerm;57159;52.472;4.750;2022-08-21T00:58:08;37.05;30.67;50.11;;
69614;Laerm;57159;52.472;4.750;2022-08-21T00:58:19;33.27;30.48;44.59;;
69614;Laerm;57159;52.472;4.750;2022-08-21T00:58:30;35.57;31.44;46.20;;
69614;Laerm;57159;52.472;4.750;2022-08-21T00:58:41;37.92;31.68;44.28;;
69614;Laerm;57159;52.472;4.750;2022-08-21T00:58:52;40.65;34.21;46.14;;
69614;Laerm;57159;52.472;4.750;2022-08-21T00:59:04;43.56;37.00;50.94;;
69614;Laerm;57159;52.472;4.750;2022-08-21T00:59:16;52.46;46.23;58.87;;
69614;Laerm;57159;52.472;4.750;2022-08-21T00:59:27;54.09;47.13;63.04;;
69614;Laerm;57159;52.472;4.750;2022-08-21T00:59:38;53.76;45.25;67.84;;
69614;Laerm;57159;52.472;4.750;2022-08-21T00:59:51;49.63;42.52;57.83;;
69614;Laerm;57159;52.472;4.750;2022-08-21T01:00:03;43.59;41.14;46.73;;
69614;Laerm;57159;52.472;4.750;2022-08-21T01:00:17;42.23;40.36;44.18;;
69614;Laerm;57159;52.472;4.750;2022-08-21T01:00:32;42.18;39.83;46.79;;
69614;Laerm;57159;52.472;4.750;2022-08-21T01:00:43;45.22;40.01;59.35;;
69614;Laerm;57159;52.472;4.750;2022-08-21T01:00:55;42.47;39.35;51.90;;
69614;Laerm;57159;52.472;4.750;2022-08-21T01:01:06;49.18;39.69;65.72;;
69614;Laerm;57159;52.472;4.750;2022-08-21T01:01:17;41.90;36.52;50.45;;
69614;Laerm;57159;52.472;4.750;2022-08-21T01:01:28;41.80;40.03;44.21;;
69614;Laerm;57159;52.472;4.750;2022-08-21T01:01:38;42.21;39.84;48.35;;
69614;Laerm;57159;52.472;4.750;2022-08-21T01:01:48;46.69;40.37;61.33;;
69614;Laerm;57159;52.472;4.750;2022-08-21T01:01:59;42.14;39.78;50.74;;